createdAt,value
2022-11-12T00:00:56.429Z,7.00
2022-11-12T00:03:23.005Z,9.73
2022-11-12T00:05:50.834Z,7.13
2022-11-12T00:08:18.039Z,9.80
2022-11-12T00:10:47.489Z,4.17
2022-11-12T00:13:14.432Z,8.57
2022-11-12T00:15:41.071Z,10.00
2022-11-12T00:18:12.763Z,8.23
2022-11-12T00:20:41.950Z,6.00
2022-11-12T00:23:08.741Z,6.83
2022-11-12T00:25:35.388Z,8.07
2022-11-12T00:28:07.584Z,6.37
2022-11-12T00:30:36.968Z,10.70
2022-11-12T00:33:07.223Z,7.40
2022-11-12T00:35:34.375Z,5.03
2022-11-12T00:38:01.471Z,8.90
2022-11-12T00:40:28.315Z,5.83
2022-11-12T00:42:55.065Z,8.73
2022-11-12T00:45:22.247Z,6.07
2022-11-12T00:47:48.877Z,5.50
2022-11-12T00:50:16.404Z,5.17
2022-11-12T00:52:43.538Z,6.67
2022-11-12T00:55:10.198Z,5.73
2022-11-12T00:57:36.810Z,6.30
2022-11-12T01:00:06.577Z,6.50
2022-11-12T01:02:38.644Z,8.97
2022-11-12T01:05:09.388Z,7.33
2022-11-12T01:07:36.167Z,8.73
2022-11-12T01:10:02.843Z,9.13
2022-11-12T01:12:31.949Z,6.03
2022-11-12T01:14:58.608Z,5.67
2022-11-12T01:17:25.219Z,6.77
2022-11-12T01:19:53.021Z,6.43
2022-11-12T01:22:19.607Z,6.00
2022-11-12T01:24:46.262Z,4.50
2022-11-12T01:27:12.807Z,8.13
2022-11-12T01:29:42.277Z,3.67
2022-11-12T01:32:08.901Z,7.50
2022-11-12T01:34:35.525Z,7.60
2022-11-12T01:37:03.343Z,5.10
2022-11-12T01:39:29.936Z,6.67
2022-11-12T01:41:56.528Z,7.90
2022-11-12T01:44:27.041Z,9.20
2022-11-12T01:47:10.633Z,8.77
2022-11-12T01:49:47.272Z,6.63
2022-11-12T01:52:23.328Z,7.37
2022-11-12T01:54:53.431Z,6.70
2022-11-12T01:57:32.048Z,7.57
2022-11-12T02:00:07.388Z,6.27
2022-11-12T02:02:36.271Z,8.60
2022-11-12T02:05:07.247Z,9.50
2022-11-12T02:07:36.830Z,8.73
2022-11-12T02:10:05.189Z,5.90
2022-11-12T02:12:50.476Z,6.00
2022-11-12T02:15:17.115Z,9.70
2022-11-12T02:17:43.669Z,8.93
2022-11-12T02:20:12.671Z,9.57
2022-11-12T02:22:39.238Z,10.87
2022-11-12T02:25:06.876Z,7.17
2022-11-12T02:27:34.385Z,11.57
2022-11-12T02:30:00.932Z,9.87
2022-11-12T02:32:27.537Z,10.80
2022-11-12T02:34:54.133Z,10.43
2022-11-12T02:37:20.923Z,6.17
2022-11-12T02:39:47.568Z,9.17
2022-11-12T02:42:14.157Z,9.27
2022-11-12T02:44:41.032Z,8.83
2022-11-12T02:47:07.594Z,9.20
2022-11-12T02:49:34.140Z,11.43
2022-11-12T02:52:00.716Z,12.20
2022-11-12T02:54:27.296Z,11.10
2022-11-12T02:56:53.902Z,7.23
2022-11-12T02:59:20.449Z,12.07
2022-11-12T03:01:47.014Z,10.40
2022-11-12T03:04:13.567Z,8.10
2022-11-12T03:06:40.433Z,10.77
2022-11-12T03:09:07.070Z,7.47
2022-11-12T03:11:33.660Z,10.50
2022-11-12T03:14:02.105Z,10.17
2022-11-12T03:16:28.671Z,9.77
2022-11-12T03:18:55.198Z,10.87
2022-11-12T03:21:21.761Z,10.07
2022-11-12T03:23:48.340Z,11.47
2022-11-12T03:26:14.929Z,9.83
2022-11-12T03:28:41.525Z,7.97
2022-11-12T03:31:08.094Z,9.80
2022-11-12T03:33:34.632Z,9.53
2022-11-12T03:36:01.229Z,10.40
2022-11-12T03:38:28.101Z,11.20
2022-11-12T03:40:55.040Z,10.80
2022-11-12T03:43:21.760Z,9.77
2022-11-12T03:45:48.373Z,12.63
2022-11-12T03:48:15.120Z,9.57
2022-11-12T03:50:41.720Z,12.40
2022-11-12T03:53:08.386Z,11.90
2022-11-12T03:55:35.095Z,11.37
2022-11-12T03:58:01.653Z,10.80
2022-11-12T04:00:30.007Z,9.93
2022-11-12T04:02:57.381Z,10.77
2022-11-12T04:05:43.476Z,13.10
2022-11-12T04:08:35.573Z,9.53
2022-11-12T04:11:05.847Z,10.87
2022-11-12T04:13:32.896Z,14.73
2022-11-12T04:16:21.333Z,10.87
2022-11-12T04:19:09.151Z,10.83
2022-11-12T04:21:56.271Z,12.13
2022-11-12T04:24:47.565Z,11.47
2022-11-12T04:27:32.124Z,13.77
2022-11-12T04:30:18.591Z,11.77
2022-11-12T04:32:59.083Z,7.10
2022-11-12T04:35:27.058Z,12.67
2022-11-12T04:37:53.900Z,10.40
2022-11-12T04:40:41.781Z,8.60
2022-11-12T04:43:29.784Z,14.30
2022-11-12T04:45:57.034Z,10.07
2022-11-12T04:48:24.526Z,13.57
2022-11-12T04:50:58.807Z,12.93
2022-11-12T04:53:26.180Z,9.10
2022-11-12T04:55:58.173Z,14.83
2022-11-12T04:58:25.499Z,12.10
2022-11-12T05:00:52.523Z,14.63
2022-11-12T05:03:19.248Z,12.93
2022-11-12T05:05:45.795Z,14.70
2022-11-12T05:08:12.348Z,15.73
2022-11-12T05:10:39.043Z,12.97
2022-11-12T05:13:05.607Z,15.90
2022-11-12T05:15:32.171Z,12.13
2022-11-12T05:17:58.791Z,14.70
2022-11-12T05:20:25.345Z,14.83
2022-11-12T05:23:05.614Z,18.70
2022-11-12T05:25:33.943Z,14.97
2022-11-12T05:28:00.516Z,15.00
2022-11-12T05:30:27.201Z,10.80
2022-11-12T05:32:53.801Z,10.87
2022-11-12T05:35:20.363Z,14.37
2022-11-12T05:37:46.933Z,19.63
2022-11-12T05:40:13.905Z,13.63
2022-11-12T05:42:40.492Z,16.17
2022-11-12T05:45:07.871Z,13.17
2022-11-12T05:47:34.434Z,16.20
2022-11-12T05:50:00.987Z,14.30
2022-11-12T05:52:27.613Z,15.97
2022-11-12T05:54:54.128Z,15.33
2022-11-12T05:57:20.692Z,23.80
2022-11-12T05:59:47.253Z,14.90
2022-11-12T06:02:13.952Z,14.87
2022-11-12T06:04:40.555Z,13.47
2022-11-12T06:07:07.121Z,14.10
2022-11-12T06:09:33.699Z,15.30
2022-11-12T06:12:00.317Z,16.17
2022-11-12T06:14:26.887Z,16.80
2022-11-12T06:16:53.434Z,13.63
2022-11-12T06:19:20.052Z,15.83
2022-11-12T06:21:46.587Z,11.47
2022-11-12T06:24:13.423Z,12.83
2022-11-12T06:26:40.061Z,13.80
2022-11-12T06:29:06.607Z,17.13
2022-11-12T06:31:33.150Z,21.03
2022-11-12T06:33:59.722Z,12.07
2022-11-12T06:36:26.268Z,11.40
2022-11-12T06:38:52.889Z,15.53
2022-11-12T06:41:19.524Z,10.93
2022-11-12T06:43:46.088Z,15.00
2022-11-12T06:46:15.480Z,12.53
2022-11-12T06:48:42.416Z,12.43
2022-11-12T06:51:15.633Z,16.30
2022-11-12T06:53:42.215Z,15.97
2022-11-12T06:56:09.228Z,14.97
2022-11-12T06:58:36.592Z,13.73
2022-11-12T07:01:12.811Z,10.60
2022-11-12T07:03:41.831Z,15.67
2022-11-12T07:06:19.324Z,14.17
2022-11-12T07:08:49.840Z,12.97
2022-11-12T07:11:18.215Z,14.73
2022-11-12T07:13:45.875Z,11.93
2022-11-12T07:16:14.054Z,19.23
2022-11-12T07:18:40.620Z,9.80
2022-11-12T07:21:10.233Z,12.83
2022-11-12T07:23:37.647Z,15.20
2022-11-12T07:26:12.559Z,16.00
2022-11-12T07:28:39.167Z,16.50
2022-11-12T07:31:12.521Z,18.23
2022-11-12T07:33:39.109Z,12.23
2022-11-12T07:36:08.597Z,17.43
2022-11-12T07:38:36.912Z,14.00
2022-11-12T07:41:05.533Z,23.33
2022-11-12T07:43:34.195Z,18.30
2022-11-12T07:46:07.529Z,18.97
2022-11-12T07:48:37.340Z,11.97
2022-11-12T07:51:07.268Z,19.93
2022-11-12T07:53:34.376Z,20.60
2022-11-12T07:56:02.231Z,17.37
2022-11-12T07:58:31.626Z,13.60
2022-11-12T08:00:58.581Z,15.93
2022-11-12T08:03:25.584Z,15.23
2022-11-12T08:05:52.219Z,15.23
2022-11-12T08:08:18.764Z,15.07
2022-11-12T08:10:45.344Z,14.87
2022-11-12T08:13:11.894Z,17.73
2022-11-12T08:15:38.440Z,11.30
2022-11-12T08:18:05.086Z,10.87
2022-11-12T08:20:31.723Z,16.87
2022-11-12T08:23:01.447Z,14.63
2022-11-12T08:25:28.244Z,17.23
2022-11-12T08:27:59.312Z,16.47
2022-11-12T08:30:29.841Z,17.40
2022-11-12T08:33:06.112Z,19.13
2022-11-12T08:35:33.145Z,12.57
2022-11-12T08:38:05.159Z,17.13
2022-11-12T08:40:32.760Z,13.07
2022-11-12T08:43:05.353Z,11.73
2022-11-12T08:45:33.628Z,12.57
2022-11-12T08:48:01.882Z,24.90
2022-11-12T08:50:29.701Z,18.30
2022-11-12T08:53:01.955Z,16.27
2022-11-12T08:55:30.200Z,14.40
2022-11-12T08:57:59.320Z,15.70
2022-11-12T09:00:25.920Z,16.70
2022-11-12T09:02:52.481Z,14.00
2022-11-12T09:05:19.018Z,12.10
2022-11-12T09:07:50.492Z,14.70
2022-11-12T09:10:17.517Z,15.00
2022-11-12T09:12:44.077Z,19.23
2022-11-12T09:18:02.789Z,14.10
2022-11-12T09:20:30.031Z,14.67
2022-11-12T09:23:08.436Z,12.37
2022-11-12T09:25:35.212Z,19.00
2022-11-12T09:28:16.454Z,15.37
2022-11-12T09:30:46.632Z,10.53
2022-11-12T09:33:18.723Z,8.63
2022-11-12T09:35:46.096Z,15.90
2022-11-12T09:38:14.942Z,14.17
2022-11-12T09:40:53.778Z,11.47
2022-11-12T09:43:34.187Z,14.13
2022-11-12T09:46:28.248Z,10.13
2022-11-12T09:49:06.657Z,11.93
2022-11-12T09:51:41.460Z,14.40
2022-11-12T09:54:20.161Z,14.93
2022-11-12T09:56:50.508Z,12.30
2022-11-12T09:59:18.041Z,14.77
2022-11-12T10:02:03.275Z,12.27
2022-11-12T10:04:57.109Z,12.87
2022-11-12T10:07:53.046Z,13.87
2022-11-12T10:10:29.707Z,12.90
2022-11-12T10:13:17.783Z,14.33
2022-11-12T10:16:41.137Z,10.37
2022-11-12T10:19:25.889Z,15.73
2022-11-12T10:21:58.465Z,10.33
2022-11-12T10:24:33.486Z,16.90
2022-11-12T10:27:00.233Z,17.73
2022-11-12T10:29:42.478Z,10.90
2022-11-12T10:32:15.569Z,10.90
2022-11-12T10:34:42.385Z,12.43
2022-11-12T10:37:20.487Z,16.30
2022-11-12T10:39:47.812Z,9.10
2022-11-12T10:42:17.520Z,11.97
2022-11-12T10:44:45.286Z,14.33
2022-11-12T10:47:27.071Z,16.53
2022-11-12T10:50:25.869Z,11.63
2022-11-12T10:52:54.930Z,10.87
2022-11-12T10:55:31.835Z,12.10
2022-11-12T10:58:10.292Z,11.70
2022-11-12T11:00:51.243Z,13.43
2022-11-12T11:03:23.625Z,9.83
2022-11-12T11:05:59.986Z,14.93
2022-11-12T11:08:50.059Z,12.50
2022-11-12T11:11:16.548Z,15.07
2022-11-12T11:13:44.805Z,10.83
2022-11-12T11:16:18.012Z,12.33
2022-11-12T11:18:52.959Z,12.73
2022-11-12T11:21:42.925Z,11.17
2022-11-12T11:24:21.061Z,11.73
2022-11-12T11:27:28.653Z,12.83
2022-11-12T11:30:03.979Z,13.03
2022-11-12T11:32:46.265Z,10.53
2022-11-12T11:35:37.641Z,11.70
2022-11-12T11:38:28.466Z,11.07
2022-11-12T11:41:04.006Z,13.57
2022-11-12T11:44:02.220Z,12.17
2022-11-12T11:47:01.324Z,18.37
2022-11-12T11:49:30.674Z,13.33
2022-11-12T11:52:24.160Z,8.93
2022-11-12T11:55:05.527Z,12.47
2022-11-12T11:58:10.698Z,9.57
2022-11-12T12:00:49.109Z,9.13
2022-11-12T12:03:24.514Z,9.60
2022-11-12T12:06:10.720Z,8.47
2022-11-12T12:08:50.331Z,8.17
2022-11-12T12:11:37.195Z,12.30
2022-11-12T12:14:17.083Z,10.43
2022-11-12T12:16:46.677Z,10.73
2022-11-12T12:19:25.163Z,12.13
2022-11-12T12:21:53.024Z,8.93
2022-11-12T12:24:31.644Z,11.23
2022-11-12T12:27:09.282Z,9.33
2022-11-12T12:29:58.736Z,11.37
2022-11-12T12:32:35.762Z,12.23
2022-11-12T12:35:22.912Z,9.60
2022-11-12T12:38:17.950Z,10.53
2022-11-12T12:40:51.856Z,7.33
2022-11-12T12:44:04.650Z,8.33
2022-11-12T12:46:37.581Z,8.43
2022-11-12T12:49:06.672Z,6.73
2022-11-12T12:51:35.138Z,8.47
2022-11-12T12:54:01.793Z,8.53
2022-11-12T12:56:31.037Z,10.40
2022-11-12T12:59:03.725Z,10.10
2022-11-12T13:01:35.187Z,8.53
2022-11-12T13:04:08.836Z,9.80
2022-11-12T13:06:39.958Z,8.97
2022-11-12T13:09:12.487Z,11.57
2022-11-12T13:12:00.633Z,7.53
2022-11-12T13:14:36.338Z,7.43
2022-11-12T13:17:08.900Z,7.20
2022-11-12T13:19:36.422Z,7.97
2022-11-12T13:22:26.259Z,11.10
2022-11-12T13:25:07.878Z,10.03
2022-11-12T13:27:40.381Z,6.23
2022-11-12T13:30:20.812Z,6.87
2022-11-12T13:32:47.312Z,8.17
2022-11-12T13:35:16.748Z,6.93
2022-11-12T13:37:45.127Z,7.70
2022-11-12T13:40:20.384Z,7.13
2022-11-12T13:42:50.092Z,9.03
2022-11-12T13:45:24.029Z,9.53
2022-11-12T13:47:51.905Z,5.73
2022-11-12T13:50:22.244Z,8.43
2022-11-12T13:52:49.808Z,5.60
2022-11-12T13:55:22.072Z,5.83
2022-11-12T13:57:50.680Z,9.00
2022-11-12T14:00:17.179Z,7.53
2022-11-12T14:02:48.078Z,8.77
2022-11-12T14:05:17.616Z,7.70
2022-11-12T14:08:03.044Z,9.67
2022-11-12T14:10:47.934Z,11.57
2022-11-12T14:13:39.182Z,8.77
2022-11-12T14:16:17.831Z,7.37
2022-11-12T14:19:09.084Z,7.10
2022-11-12T14:21:35.767Z,6.93
2022-11-12T14:24:03.392Z,8.50
2022-11-12T14:26:39.428Z,9.33
2022-11-12T14:29:06.407Z,10.37
2022-11-12T14:31:33.801Z,5.90
2022-11-12T14:34:22.891Z,8.77
2022-11-12T14:36:49.568Z,7.43
2022-11-12T14:39:18.426Z,5.43
2022-11-12T14:41:47.736Z,8.50
2022-11-12T14:44:22.547Z,8.03
2022-11-12T14:46:55.863Z,5.90
2022-11-12T14:49:34.252Z,6.07
2022-11-12T14:52:06.081Z,5.87
2022-11-12T14:54:37.004Z,6.57
2022-11-12T14:57:04.564Z,10.37
2022-11-12T14:59:31.863Z,7.33
2022-11-12T15:02:28.634Z,9.57
2022-11-12T15:05:00.255Z,7.80
2022-11-12T15:07:33.065Z,7.40
2022-11-12T15:10:00.288Z,6.77
2022-11-12T15:12:32.889Z,8.43
2022-11-12T15:15:22.772Z,8.57
2022-11-12T15:17:57.670Z,10.70
2022-11-12T15:20:24.413Z,5.80
2022-11-12T15:22:53.190Z,5.30
2022-11-12T15:25:35.013Z,6.17
2022-11-12T15:28:22.006Z,9.20
2022-11-12T15:31:19.503Z,11.97
2022-11-12T15:33:46.048Z,10.10
2022-11-12T15:36:18.132Z,3.93
2022-11-12T15:38:51.164Z,6.47
2022-11-12T15:41:27.464Z,13.40
2022-11-12T15:43:54.272Z,6.73
2022-11-12T15:46:21.149Z,8.73
2022-11-12T15:48:52.855Z,6.67
2022-11-12T15:51:22.391Z,4.90
2022-11-12T15:53:48.932Z,6.73
2022-11-12T15:56:18.563Z,7.17
2022-11-12T15:58:45.163Z,4.70
2022-11-12T16:01:12.512Z,6.70
2022-11-12T16:03:39.101Z,6.80
2022-11-12T16:06:09.360Z,6.93
2022-11-12T16:08:36.196Z,5.50
2022-11-12T16:11:03.104Z,6.07
2022-11-12T16:13:33.931Z,7.17
2022-11-12T16:16:05.053Z,6.63
2022-11-12T16:18:31.771Z,7.43
2022-11-12T16:20:58.469Z,6.90
2022-11-12T16:23:27.275Z,6.23
2022-11-12T16:25:54.407Z,7.00
2022-11-12T16:28:23.545Z,7.07
2022-11-12T16:30:52.383Z,5.00
2022-11-12T16:33:18.923Z,8.13
2022-11-12T16:35:45.518Z,8.30
2022-11-12T16:38:19.658Z,8.97
2022-11-12T16:40:47.375Z,8.47
2022-11-12T16:43:14.016Z,5.23
2022-11-12T16:45:45.325Z,8.60
2022-11-12T16:48:23.745Z,6.90
2022-11-12T16:50:50.311Z,5.13
2022-11-12T16:53:16.881Z,6.63
2022-11-12T16:55:43.748Z,7.07
2022-11-12T16:58:18.960Z,9.87
2022-11-12T17:00:50.148Z,3.87
2022-11-12T17:03:16.774Z,9.30
2022-11-12T17:05:43.342Z,8.53
2022-11-12T17:08:11.053Z,7.87
2022-11-12T17:10:37.776Z,5.27
2022-11-12T17:13:04.369Z,7.53
2022-11-12T17:15:30.936Z,7.57
2022-11-12T17:17:57.499Z,7.60
2022-11-12T17:20:24.057Z,6.37
2022-11-12T17:22:50.699Z,5.70
2022-11-12T17:25:17.460Z,3.10
2022-11-12T17:27:44.017Z,7.53
2022-11-12T17:30:11.958Z,6.80
2022-11-12T17:32:38.590Z,9.57
2022-11-12T17:35:05.665Z,6.10
2022-11-12T17:37:32.289Z,4.53
2022-11-12T17:39:58.920Z,8.77
2022-11-12T17:42:25.581Z,9.93
2022-11-12T17:44:52.145Z,6.87
2022-11-12T17:47:18.703Z,5.97
2022-11-12T17:49:45.268Z,8.23
2022-11-12T17:52:11.827Z,12.10
2022-11-12T17:54:38.432Z,14.37
2022-11-12T17:57:05.001Z,5.40
2022-11-12T17:59:31.541Z,10.23
2022-11-12T18:02:00.957Z,9.97
2022-11-12T18:04:30.724Z,8.13
2022-11-12T18:06:57.920Z,8.37
2022-11-12T18:09:24.493Z,6.27
2022-11-12T18:11:54.864Z,5.87
2022-11-12T18:14:23.126Z,10.13
2022-11-12T18:16:49.775Z,6.40
2022-11-12T18:19:16.902Z,7.03
2022-11-12T18:21:43.472Z,10.13
2022-11-12T18:24:15.763Z,13.13
2022-11-12T18:26:43.139Z,9.53
2022-11-12T18:29:09.700Z,10.70
2022-11-12T18:31:36.269Z,10.07
2022-11-12T18:34:02.854Z,6.80
2022-11-12T18:36:30.612Z,8.20
2022-11-12T18:38:57.229Z,7.20
2022-11-12T18:41:26.897Z,8.33
2022-11-12T18:43:54.961Z,7.87
2022-11-12T18:46:21.820Z,5.17
2022-11-12T18:48:49.026Z,9.33
2022-11-12T18:51:18.447Z,10.13
2022-11-12T18:53:46.237Z,9.20
2022-11-12T18:56:18.406Z,8.43
2022-11-12T18:58:45.546Z,11.80
2022-11-12T19:01:15.959Z,12.90
2022-11-12T19:03:43.492Z,8.37
2022-11-12T19:06:12.491Z,11.33
2022-11-12T19:08:39.571Z,14.80
2022-11-12T19:11:09.576Z,17.10
2022-11-12T19:13:36.728Z,17.13
2022-11-12T19:16:19.593Z,10.93
2022-11-12T19:18:46.440Z,6.50
2022-11-12T19:21:22.177Z,26.27
2022-11-12T19:23:53.561Z,18.77
2022-11-12T19:26:22.161Z,8.27
2022-11-12T19:28:48.860Z,7.80
2022-11-12T19:31:18.769Z,6.90
2022-11-12T19:33:46.803Z,9.17
2022-11-12T19:36:15.609Z,8.47
2022-11-12T19:38:42.388Z,6.83
2022-11-12T19:41:19.064Z,5.30
2022-11-12T19:43:46.904Z,10.13
2022-11-12T19:46:14.991Z,17.03
2022-11-12T19:48:42.005Z,8.47
2022-11-12T19:51:10.761Z,11.03
2022-11-12T19:53:41.659Z,11.63
2022-11-12T19:56:08.212Z,8.70
2022-11-12T19:58:34.780Z,9.60
2022-11-12T20:01:05.261Z,5.30
2022-11-12T20:03:32.170Z,5.33
2022-11-12T20:06:09.759Z,9.47
2022-11-12T20:08:37.203Z,6.73
2022-11-12T20:11:04.360Z,9.23
2022-11-12T20:13:31.107Z,4.93
2022-11-12T20:15:57.835Z,7.10
2022-11-12T20:18:24.705Z,7.30
2022-11-12T20:20:54.350Z,8.20
2022-11-12T20:23:23.512Z,5.33
2022-11-12T20:25:51.834Z,7.03
2022-11-12T20:28:18.670Z,5.37
2022-11-12T20:30:45.518Z,10.00
2022-11-12T20:33:15.303Z,7.13
2022-11-12T20:35:42.198Z,5.10
2022-11-12T20:38:08.839Z,6.77
2022-11-12T20:40:35.683Z,5.63
2022-11-12T20:43:02.295Z,7.97
2022-11-12T20:45:28.872Z,4.80
2022-11-12T20:47:56.258Z,5.80
2022-11-12T20:50:23.824Z,3.57
2022-11-12T20:52:50.501Z,3.13
2022-11-12T20:55:17.236Z,3.83
2022-11-12T20:57:43.974Z,7.23
2022-11-12T21:00:14.158Z,4.20
2022-11-12T21:02:41.927Z,5.27
2022-11-12T21:05:08.740Z,6.17
2022-11-12T21:07:35.349Z,6.97
2022-11-12T21:10:02.079Z,5.30
2022-11-12T21:12:28.675Z,8.73
2022-11-12T21:14:55.271Z,5.13
2022-11-12T21:17:22.405Z,6.03
2022-11-12T21:19:48.999Z,5.27
2022-11-12T21:22:15.629Z,6.13
2022-11-12T21:24:42.231Z,8.17
2022-11-12T21:27:13.532Z,7.40
2022-11-12T21:29:43.330Z,4.27
2022-11-12T21:32:10.042Z,5.83
2022-11-12T21:34:39.416Z,3.93
2022-11-12T21:37:05.968Z,7.13
2022-11-12T21:39:33.897Z,5.70
2022-11-12T21:42:00.447Z,3.93
2022-11-12T21:44:29.811Z,7.13
2022-11-12T21:46:59.199Z,5.30
2022-11-12T21:49:25.760Z,4.50
2022-11-12T21:51:52.327Z,4.73
2022-11-12T21:54:18.881Z,7.83
2022-11-12T21:56:48.575Z,5.20
2022-11-12T21:59:16.581Z,4.60
2022-11-12T22:01:43.845Z,3.93
2022-11-12T22:04:15.482Z,2.83
2022-11-12T22:06:44.701Z,5.00
2022-11-12T22:09:11.353Z,4.57
2022-11-12T22:11:38.018Z,5.27
2022-11-12T22:14:04.689Z,5.40
2022-11-12T22:16:31.260Z,6.50
2022-11-12T22:19:09.195Z,5.53
2022-11-12T22:21:39.909Z,6.90
2022-11-12T22:24:09.694Z,8.13
2022-11-12T22:26:36.851Z,5.43
2022-11-12T22:29:03.736Z,5.90
2022-11-12T22:31:33.074Z,5.50
2022-11-12T22:34:04.993Z,4.93
2022-11-12T22:36:32.911Z,2.83
2022-11-12T22:39:02.873Z,3.80
2022-11-12T22:41:31.383Z,7.47
2022-11-12T22:44:00.471Z,7.93
2022-11-12T22:46:34.757Z,7.27
2022-11-12T22:49:03.610Z,4.30
2022-11-12T22:51:32.379Z,3.27
2022-11-12T22:54:02.064Z,4.20
2022-11-12T22:56:29.128Z,2.93
2022-11-12T22:58:55.738Z,4.60
2022-11-12T23:01:24.874Z,4.67
2022-11-12T23:03:54.039Z,7.43
2022-11-12T23:06:21.241Z,11.17
2022-11-12T23:08:48.569Z,7.03
2022-11-12T23:11:20.569Z,4.90
2022-11-12T23:13:48.101Z,4.40
2022-11-12T23:16:21.513Z,6.60
2022-11-12T23:18:48.305Z,4.93
2022-11-12T23:21:20.248Z,3.33
2022-11-12T23:23:46.997Z,4.50
2022-11-12T23:26:15.063Z,6.00
2022-11-12T23:28:41.687Z,4.37
2022-11-12T23:31:20.472Z,6.47
2022-11-12T23:33:49.436Z,7.87
2022-11-12T23:36:16.250Z,4.60
2022-11-12T23:38:43.387Z,7.97
2022-11-12T23:41:16.759Z,6.33
2022-11-12T23:43:44.154Z,5.43
2022-11-12T23:46:11.929Z,4.47
2022-11-12T23:48:38.850Z,3.13
2022-11-12T23:51:08.140Z,4.90
2022-11-12T23:53:35.708Z,5.53
2022-11-12T23:56:03.292Z,3.80
2022-11-12T23:58:31.105Z,3.57
